Latest Weather Observations for Mildura

IDV60801

Issued at 10:32 pm EDT Sunday 19 February 2017 (issued every 30 minutes, with the page automatically refreshed every 10 minutes)

About weather observations | Map of weather stations | Latest weather observations for VIC | Other Formats
Station Details ID: 076031 Name: MILDURA AIRPORT Lat: -34.24 Lon: 142.09 Height: 50.0 m
Data from the previous 72 hours. | See also: Recent months at Mildura
Date/Time
EDT
Temp
°C
App
Temp
°C
Dew
Point
°C
Rel
Hum
%
Delta-T
°C
Wind Press
QNH
hPa
Press
MSL
hPa
Rain since
9am
mm
Dir  Spd
km/h
Gust
km/h
Spd
kts
Gust
kts
19/10:30pm 16.6 12.5 6.4 51 5.0 SW 17 28 9 15 1015.0 1014.8 0.0
19/10:00pm 17.1 12.6 6.9 51 5.1 SW 20 32 11 17 1014.6 1014.4 0.0
19/09:30pm 17.9 13.0 7.0 49 5.5 SSW 22 39 12 21 1014.0 1013.8 0.0
19/09:00pm 18.7 14.0 6.2 44 6.2 SW 20 32 11 17 1013.5 1013.3 0.0
19/08:30pm 19.4 14.3 6.2 42 6.6 SW 22 41 12 22 1013.1 1012.9 0.0
19/08:00pm 20.2 15.0 5.4 38 7.3 SW 22 39 12 21 1012.6 1012.4 0.0
19/07:30pm 20.9 14.6 4.0 33 8.2 WSW 26 44 14 24 1012.1 1011.9 0.0
19/07:00pm 21.6 17.0 3.8 31 8.6 WSW 17 28 9 15 1011.8 1011.6 0.0
19/06:30pm 22.3 16.4 3.9 30 8.9 WSW 24 39 13 21 1011.7 1011.5 0.0
19/06:00pm 23.0 17.5 4.0 29 9.3 SW 22 35 12 19 1011.6 1011.4 0.0
19/05:30pm 21.8 16.3 3.9 31 8.7 WSW 22 35 12 19 1011.9 1011.7 0.0
19/05:00pm 22.6 17.0 3.7 29 9.2 WSW 22 37 12 20 1011.9 1011.7 0.0
19/04:30pm 22.5 16.8 3.1 28 9.3 WSW 22 35 12 19 1012.0 1011.8 0.0
19/04:00pm 22.2 16.2 3.3 29 9.1 WSW 24 39 13 21 1012.3 1012.1 0.0
19/03:30pm 22.2 16.6 3.3 29 9.1 SW 22 35 12 19 1012.5 1012.3 0.0
19/03:00pm 21.5 16.3 2.7 29 8.9 WSW 19 28 10 15 1012.7 1012.5 0.0
19/02:30pm 20.4 15.0 4.4 35 7.8 WSW 22 35 12 19 1013.4 1013.2 0.0
19/02:00pm 21.1 16.7 4.6 34 8.1 WSW 17 30 9 16 1013.7 1013.5 0.0
19/01:30pm 19.0 14.2 4.4 38 7.0 SW 19 32 10 17 1014.0 1013.8 0.0
19/01:00pm 18.6 14.4 5.5 42 6.4 WSW 17 28 9 15 1014.4 1014.2 0.0
19/12:30pm 18.2 13.3 5.1 42 6.3 WSW 20 28 11 15 1014.9 1014.7 0.0
19/12:00pm 18.3 13.7 5.5 43 6.2 WSW 19 32 10 17 1015.3 1015.1 0.0
19/11:30am 19.0 14.3 5.1 40 6.8 WSW 19 28 10 15 1015.5 1015.3 0.0
19/11:00am 17.5 12.9 5.8 46 5.7 WSW 19 28 10 15 1015.6 1015.4 0.0
19/10:30am 16.8 12.7 6.3 50 5.1 WSW 17 26 9 14 1015.8 1015.6 0.0
19/10:00am 16.6 13.4 7.0 53 4.8 WSW 13 22 7 12 1015.9 1015.7 0.0
19/09:30am 15.7 11.7 6.7 55 4.4 WSW 17 26 9 14 1016.0 1015.8 0.0
19/09:00am 14.1 10.0 6.0 58 3.9 WSW 17 26 9 14 1015.9 1015.7 0.0
19/08:30am 12.4 9.8 6.0 65 3.0 WSW 9 13 5 7 1015.7 1015.5 0.0
19/08:00am 10.5 8.1 5.3 70 2.4 W 7 13 4 7 1015.6 1015.4 0.0
19/07:30am 9.2 6.7 5.0 75 1.9 WSW 7 9 4 5 1015.3 1015.1 0.0
19/07:00am 9.2 6.3 4.8 74 2.0 SW 9 15 5 8 1015.0 1014.8 0.0
19/06:30am 8.9 6.4 4.5 74 1.9 WSW 7 11 4 6 1014.8 1014.6 0.0
19/06:00am 9.1 6.6 4.5 73 2.0 WSW 7 11 4 6 1014.7 1014.5 0.0
19/05:30am 9.5 7.0 4.5 71 2.2 WSW 7 11 4 6 1014.8 1014.6 0.0
19/05:00am 9.9 6.9 4.3 68 2.5 SW 9 13 5 7 1014.8 1014.6 0.0
19/04:30am 10.4 7.4 4.3 66 2.7 SW 9 15 5 8 1014.8 1014.6 0.0
19/04:00am 11.0 7.6 4.2 63 3.0 SW 11 15 6 8 1014.9 1014.7 0.0
19/03:30am 11.8 8.4 4.1 59 3.5 SW 11 15 6 8 1014.9 1014.7 0.0
19/03:00am 12.2 8.4 3.9 57 3.7 SW 13 19 7 10 1015.0 1014.8 0.0
19/02:30am 12.8 9.0 3.7 54 4.1 SW 13 20 7 11 1015.3 1015.1 0.0
19/02:00am 13.4 9.5 3.5 51 4.5 SW 13 20 7 11 1015.5 1015.3 0.0
19/01:30am 14.0 9.7 3.2 48 4.9 SW 15 22 8 12 1015.5 1015.3 0.0
19/01:00am 14.7 10.4 3.2 46 5.2 SW 15 24 8 13 1015.5 1015.3 0.0
19/12:30am 15.3 10.7 3.5 45 5.4 SW 17 28 9 15 1015.3 1015.1 0.0
19/12:00am 15.5 11.3 3.6 45 5.5 SW 15 20 8 11 1015.1 1014.9 0.0
 
Date/Time
EDT
Temp
°C
App
Temp
°C
Dew
Point
°C
Rel
Hum
%
Delta-T
°C
Wind Press
QNH
hPa
Press
MSL
hPa
Rain since
9am
mm
Dir  Spd
km/h
Gust
km/h
Spd
kts
Gust
kts
18/11:30pm 16.1 11.8 3.5 43 5.8 SW 15 24 8 13 1014.9 1014.7 0.0
18/11:00pm 16.7 12.0 3.4 41 6.1 SW 17 28 9 15 1014.8 1014.6 0.0
18/10:30pm 17.3 12.0 3.2 39 6.5 SW 20 32 11 17 1014.6 1014.4 0.0
18/10:00pm 17.9 13.5 2.6 36 7.0 SW 15 20 8 11 1014.4 1014.2 0.0
18/09:30pm 18.4 13.6 2.7 35 7.2 SW 17 26 9 14 1013.9 1013.7 0.0
18/09:00pm 18.8 14.9 3.4 36 7.2 SW 13 22 7 12 1013.4 1013.2 0.0
18/08:30pm 19.4 15.0 2.7 33 7.8 SW 15 24 8 13 1013.0 1012.8 0.0
18/08:00pm 20.2 15.5 3.4 33 8.0 SW 17 32 9 17 1012.7 1012.5 0.0
18/07:30pm 20.8 15.2 3.5 32 8.3 SW 22 35 12 19 1012.4 1012.2 0.0
18/07:00pm 21.3 15.7 3.5 31 8.5 SW 22 33 12 18 1012.3 1012.1 0.0
18/06:30pm 22.2 17.2 3.8 30 8.9 SW 19 37 10 20 1012.1 1011.9 0.0
18/06:00pm 22.6 17.5 4.2 30 9.0 SW 20 30 11 16 1012.0 1011.8 0.0
18/05:30pm 22.9 17.4 3.9 29 9.3 SW 22 35 12 19 1012.0 1011.8 0.0
18/05:00pm 22.2 17.7 4.3 31 8.8 WSW 17 30 9 16 1012.3 1012.1 0.0
18/04:30pm 22.0 16.9 4.1 31 8.7 SW 20 39 11 21 1012.4 1012.2 0.0
18/04:00pm 22.0 17.0 3.6 30 8.9 SW 19 30 10 16 1012.5 1012.3 0.0
18/03:30pm 21.6 16.6 4.7 33 8.3 WSW 20 32 11 17 1012.8 1012.6 0.0
18/03:00pm 21.3 16.5 4.8 34 8.1 SW 19 30 10 16 1013.4 1013.2 0.0
18/02:30pm 21.3 16.5 5.6 36 7.8 SSW 20 35 11 19 1013.7 1013.5 0.0
18/02:00pm 19.9 15.1 5.5 39 7.1 SW 20 35 11 19 1013.6 1013.4 0.0
18/01:30pm 20.3 16.3 5.1 37 7.5 SW 15 28 8 15 1013.8 1013.6 0.0
18/01:00pm 20.1 18.2 6.8 42 6.7 W 6 13 3 7 1014.4 1014.2 0.0
18/12:30pm 17.7 13.6 7.7 52 5.1 SW 19 28 10 15 1015.0 1014.8 0.0
18/12:00pm 17.6 14.1 7.1 50 5.3 SW 15 28 8 15 1014.9 1014.7 0.0
18/11:30am 18.2 14.9 7.9 51 5.3 SSW 15 24 8 13 1014.8 1014.6 0.0
18/11:00am 17.7 13.8 7.2 50 5.3 S 17 24 9 13 1014.9 1014.7 0.0
18/10:30am 17.4 14.4 7.7 53 4.9 S 13 26 7 14 1014.8 1014.6 0.0
18/10:00am 17.3 14.5 8.7 57 4.4 S 13 24 7 13 1014.8 1014.6 0.0
18/09:30am 17.0 14.2 8.7 58 4.3 SSW 13 17 7 9 1014.5 1014.3 0.0
18/09:00am 15.6 13.4 9.3 66 3.3 SSW 11 17 6 9 1014.3 1014.1 0.0
18/08:30am 15.5 12.9 9.2 66 3.2 SSW 13 17 7 9 1013.9 1013.7 0.0
18/08:00am 15.2 13.3 9.1 67 3.1 SSW 9 15 5 8 1013.6 1013.4 0.0
18/07:30am 14.8 12.6 9.4 70 2.8 SSW 11 17 6 9 1013.1 1012.9 0.0
18/07:00am 15.0 12.1 9.6 70 2.8 SSW 15 20 8 11 1013.0 1012.8 0.0
18/06:30am 14.5 11.6 9.5 72 2.6 SW 15 20 8 11 1012.8 1012.6 0.0
18/06:00am 14.3 11.7 9.5 73 2.5 SSW 13 19 7 10 1012.2 1012.0 0.0
18/05:30am 14.6 12.5 9.6 72 2.6 SSW 11 17 6 9 1011.9 1011.7 0.0
18/05:00am 15.1 12.7 9.9 71 2.7 SSW 13 20 7 11 1011.7 1011.5 0.0
18/04:30am 15.3 13.3 10.1 71 2.7 SSW 11 20 6 11 1011.6 1011.4 0.0
18/04:00am 15.4 13.5 10.4 72 2.6 SW 11 19 6 10 1011.8 1011.6 0.0
18/03:30am 15.4 13.9 10.4 72 2.6 SW 9 13 5 7 1011.6 1011.4 0.0
18/03:00am 15.8 14.7 10.8 72 2.7 SSW 7 9 4 5 1011.5 1011.3 0.0
18/02:30am 16.5 15.1 10.8 69 3.0 SSW 9 13 5 7 1011.8 1011.6 0.0
18/02:00am 17.1 15.7 10.9 67 3.3 SSW 9 15 5 8 1012.0 1011.8 0.0
18/01:30am 17.7 15.1 10.8 64 3.7 SSW 15 22 8 12 1012.3 1012.1 0.0
18/01:00am 18.0 15.1 11.1 64 3.7 SSW 17 24 9 13 1012.2 1012.0 0.0
18/12:30am 18.4 15.2 11.2 63 3.9 SSW 19 30 10 16 1012.3 1012.1 0.0
18/12:00am 19.4 15.7 11.4 60 4.4 SSW 22 33 12 18 1012.0 1011.8 0.0
 
Date/Time
EDT
Temp
°C
App
Temp
°C
Dew
Point
°C
Rel
Hum
%
Delta-T
°C
Wind Press
QNH
hPa
Press
MSL
hPa
Rain since
9am
mm
Dir  Spd
km/h
Gust
km/h
Spd
kts
Gust
kts
17/11:30pm 20.6 17.3 11.0 54 5.3 SSW 19 30 10 16 1012.0 1011.8 0.0
17/11:00pm 21.2 18.5 8.8 45 6.6 SSW 13 20 7 11 1012.1 1011.9 0.0
17/10:30pm 21.8 19.0 8.7 43 6.9 SSW 13 17 7 9 1012.1 1011.9 0.0
17/10:00pm 22.3 19.2 8.8 42 7.2 SW 15 26 8 14 1012.0 1011.8 0.0
17/09:30pm 23.1 19.1 8.4 39 7.8 SW 19 32 10 17 1011.6 1011.4 0.0
17/09:00pm 23.8 20.7 7.4 35 8.6 SW 13 20 7 11 1011.2 1011.0 0.0
17/08:30pm 24.5 20.6 7.2 33 9.1 SW 17 24 9 13 1010.7 1010.5 0.0
17/08:00pm 25.4 21.3 6.1 29 10.0 SW 17 28 9 15 1010.2 1010.0 0.0
17/07:30pm 26.6 23.1 7.1 29 10.3 WSW 15 26 8 14 1009.7 1009.5 0.0
17/07:00pm 27.2 23.7 7.1 28 10.7 SW 15 24 8 13 1009.5 1009.3 0.0
17/06:30pm 27.4 23.1 6.8 27 10.9 SW 19 33 10 18 1009.4 1009.2 0.0
17/06:00pm 27.3 22.7 6.7 27 10.9 SW 20 32 11 17 1009.3 1009.1 0.0
17/05:30pm 27.5 22.9 6.3 26 11.1 SW 20 32 11 17 1009.2 1009.0 0.0
17/05:00pm 28.0 23.8 7.3 27 11.1 SW 19 32 10 17 1009.2 1009.0 0.0
17/04:30pm 27.8 23.9 7.1 27 11.0 SW 17 30 9 16 1009.4 1009.2 0.0
17/04:00pm 27.5 23.5 6.8 27 11.0 SW 17 32 9 17 1009.8 1009.6 0.0
17/03:30pm 27.2 23.4 6.0 26 11.1 SW 15 28 8 15 1010.2 1010.0 0.0
17/03:00pm 26.8 22.7 6.2 27 10.8 WSW 17 26 9 14 1010.7 1010.5 0.0
17/02:30pm 26.5 22.4 6.0 27 10.6 WSW 17 30 9 16 1011.2 1011.0 0.0
17/02:00pm 24.8 20.7 6.1 30 9.6 SW 17 28 9 15 1011.5 1011.3 0.0
17/01:30pm 24.3 20.2 6.1 31 9.3 WSW 17 30 9 16 1011.9 1011.7 0.0
17/01:00pm 24.2 20.4 6.0 31 9.3 SSW 15 24 8 13 1012.2 1012.0 0.0
17/12:30pm 22.1 18.3 5.9 35 8.2 S 15 22 8 12 1012.7 1012.5 0.0
17/12:00pm 22.1 18.8 6.3 36 8.0 SSW 13 19 7 10 1013.0 1012.8 0.0
17/11:30am 21.1 17.8 6.2 38 7.5 S 13 20 7 11 1013.5 1013.3 0.0
17/11:00am 19.9 16.4 5.5 39 7.1 S 13 26 7 14 1013.5 1013.3 0.0
17/10:30am 19.4 15.2 5.8 41 6.7 S 17 28 9 15 1013.1 1012.9 0.0
17/10:00am 19.4 15.2 5.8 41 6.7 S 17 26 9 14 1013.1 1012.9 0.0
17/09:30am 18.4 14.2 5.6 43 6.3 SSW 17 24 9 13 1013.1 1012.9 0.0
17/09:00am 17.5 14.3 6.7 49 5.4 S 13 20 7 11 1012.8 1012.6 0.0
17/08:30am 16.1 12.2 7.1 55 4.5 S 17 22 9 12 1012.4 1012.2 0.0
17/08:00am 16.1 12.6 7.1 55 4.5 SSW 15 22 8 12 1012.2 1012.0 0.0
17/07:30am 15.6 12.5 7.1 57 4.2 SSW 13 20 7 11 1011.8 1011.6 0.0
17/07:00am 16.2 12.7 7.4 56 4.4 SSW 15 22 8 12 1011.5 1011.3 0.0
17/06:30am 16.8 14.5 7.4 54 4.7 SSW 9 17 5 9 1011.3 1011.1 0.0
17/06:00am 17.2 13.8 7.8 54 4.8 SSW 15 20 8 11 1011.0 1010.8 0.0
17/05:30am 17.4 15.0 8.8 57 4.4 SW 11 17 6 9 1010.6 1010.4 0.0
17/05:00am 18.1 15.5 9.5 57 4.5 SSW 13 19 7 10 1010.2 1010.0 0.0
17/04:30am 18.5 16.0 9.6 56 4.7 SSW 13 19 7 10 1009.9 1009.7 0.0
17/04:00am 19.2 17.1 9.9 55 5.0 S 11 17 6 9 1009.9 1009.7 0.0
17/03:30am 19.6 17.6 10.0 54 5.2 S 11 17 6 9 1009.8 1009.6 0.0
17/03:00am 20.0 18.0 10.1 53 5.3 S 11 19 6 10 1009.7 1009.5 0.0
17/02:30am 20.4 18.0 10.2 52 5.5 S 13 24 7 13 1009.9 1009.7 0.0
17/02:00am 21.0 18.6 10.2 50 5.9 S 13 20 7 11 1010.1 1009.9 0.0
17/01:30am 21.6 19.3 10.4 49 6.1 S 13 24 7 13 1010.1 1009.9 0.0
17/01:00am 22.2 18.8 10.4 47 6.5 S 19 32 10 17 1009.9 1009.7 0.0
17/12:30am 23.3 19.7 10.7 45 7.0 SSW 20 32 11 17 1009.8 1009.6 0.0
17/12:00am 24.5 20.3 11.1 43 7.5 SSW 24 39 13 21 1009.6 1009.4 0.0
 
Date/Time
EDT
Temp
°C
App
Temp
°C
Dew
Point
°C
Rel
Hum
%
Delta-T
°C
Wind Press
QNH
hPa
Press
MSL
hPa
Rain since
9am
mm
Dir  Spd
km/h
Gust
km/h
Spd
kts
Gust
kts
16/11:30pm 26.5 23.5 11.8 40 8.4 SSW 19 32 10 17 1009.3 1009.1 0.0
16/11:00pm 28.1 26.8 12.5 38 9.1 SW 11 17 6 9 1009.0 1008.8 0.0

Other Formats:

Comma delimited format used in spreadsheet applications
http://www.bom.gov.au/fwo/IDV60801/IDV60801.94693.axf

JavaScript Object Notation format (JSON) in row-major order
http://www.bom.gov.au/fwo/IDV60801/IDV60801.94693.json